createdAt,value
2024-02-12T00:00:34.953Z,5.30
2024-02-12T00:03:21.325Z,9.07
2024-02-12T00:05:53.377Z,5.15
2024-02-12T00:08:27.970Z,3.65
2024-02-12T00:11:02.949Z,11.95
2024-02-12T00:13:40.971Z,4.68
2024-02-12T00:16:17.942Z,5.60
2024-02-12T00:18:52.774Z,6.38
2024-02-12T00:21:24.251Z,7.75
2024-02-12T00:23:58.696Z,5.00
2024-02-12T00:26:29.967Z,8.32
2024-02-12T00:29:07.579Z,7.65
2024-02-12T00:31:40.556Z,6.82
2024-02-12T00:34:14.847Z,6.05
2024-02-12T00:36:47.296Z,10.07
2024-02-12T00:39:19.923Z,5.45
2024-02-12T00:41:55.469Z,8.18
2024-02-12T00:44:29.628Z,3.72
2024-02-12T00:47:05.239Z,8.70
2024-02-12T00:49:36.745Z,2.72
2024-02-12T00:52:09.872Z,8.43
2024-02-12T00:54:42.873Z,4.13
2024-02-12T00:57:15.253Z,5.57
2024-02-12T00:59:51.971Z,10.82
2024-02-12T01:02:24.496Z,5.22
2024-02-12T01:05:01.553Z,4.22
2024-02-12T01:07:35.340Z,13.60
2024-02-12T01:10:08.244Z,4.22
2024-02-12T01:12:47.664Z,6.97
2024-02-12T01:15:28.174Z,7.63
2024-02-12T01:18:26.545Z,6.70
2024-02-12T01:20:58.870Z,7.20
2024-02-12T01:23:31.997Z,5.88
2024-02-12T01:26:06.312Z,9.52
2024-02-12T01:28:40.302Z,6.10
2024-02-12T01:31:24.038Z,5.20
2024-02-12T01:33:58.445Z,6.25
2024-02-12T01:36:38.464Z,4.63
2024-02-12T01:39:13.244Z,5.97
2024-02-12T01:41:49.738Z,8.00
2024-02-12T01:44:25.505Z,7.95
2024-02-12T01:47:24.656Z,7.78
2024-02-12T01:50:09.118Z,7.22
2024-02-12T01:52:51.156Z,4.68
2024-02-12T01:55:25.396Z,7.38
2024-02-12T02:00:31.361Z,3.30
2024-02-12T02:03:19.163Z,4.20
2024-02-12T02:05:59.011Z,6.00
2024-02-12T02:08:46.746Z,3.50
2024-02-12T02:11:21.729Z,5.38
2024-02-12T02:14:00.426Z,3.88
2024-02-12T02:16:45.118Z,5.47
2024-02-12T02:19:25.136Z,4.72
2024-02-12T02:24:37.243Z,4.60
2024-02-12T02:27:09.297Z,4.80
2024-02-12T02:29:44.964Z,4.65
2024-02-12T02:32:18.709Z,6.50
2024-02-12T02:37:22.965Z,9.30
2024-02-12T02:40:03.029Z,3.53
2024-02-12T02:42:35.832Z,5.90
2024-02-12T02:45:08.278Z,4.45
2024-02-12T02:48:04.679Z,7.25
2024-02-12T02:50:38.791Z,4.32
2024-02-12T02:53:10.576Z,5.70
2024-02-12T02:55:48.462Z,3.10
2024-02-12T02:58:24.379Z,5.78
2024-02-12T03:00:59.508Z,6.68
2024-02-12T03:03:30.820Z,6.00
2024-02-12T03:06:07.860Z,4.18
2024-02-12T03:08:41.919Z,5.95
2024-02-12T03:11:24.341Z,6.07
2024-02-12T03:14:01.965Z,5.43
2024-02-12T03:16:34.641Z,4.13
2024-02-12T03:19:06.795Z,3.05
2024-02-12T03:21:42.764Z,4.82
2024-02-12T03:24:14.976Z,6.30
2024-02-12T03:26:52.373Z,4.60
2024-02-12T03:29:27.002Z,7.03
2024-02-12T03:32:05.546Z,3.53
2024-02-12T03:34:37.639Z,7.88
2024-02-12T03:37:09.621Z,3.92
2024-02-12T03:39:40.883Z,6.60
2024-02-12T03:42:15.063Z,4.50
2024-02-12T03:44:46.835Z,6.88
2024-02-12T03:47:20.063Z,5.32
2024-02-12T03:50:03.852Z,4.38
2024-02-12T03:52:48.212Z,6.57
2024-02-12T03:55:32.168Z,6.13
2024-02-12T03:58:18.661Z,3.95
2024-02-12T04:00:50.329Z,8.70
2024-02-12T04:03:24.616Z,3.47
2024-02-12T04:06:02.272Z,5.68
2024-02-12T04:08:37.011Z,5.07
2024-02-12T04:11:12.293Z,3.40
2024-02-12T04:13:48.096Z,5.80
2024-02-12T04:16:20.095Z,9.57
2024-02-12T04:18:55.227Z,3.13
2024-02-12T04:21:26.497Z,5.07
2024-02-12T04:23:59.368Z,8.00
2024-02-12T04:26:30.906Z,5.40
2024-02-12T04:29:08.014Z,4.45
2024-02-12T04:31:39.807Z,9.25
2024-02-12T04:34:15.111Z,7.35
2024-02-12T04:36:46.589Z,6.32
2024-02-12T04:39:18.528Z,6.47
2024-02-12T04:41:52.962Z,7.57
2024-02-12T04:44:27.106Z,3.53
2024-02-12T04:46:59.855Z,4.80
2024-02-12T04:49:32.022Z,7.07
2024-02-12T04:52:03.857Z,4.53
2024-02-12T04:54:35.763Z,8.93
2024-02-12T04:57:07.488Z,7.00
2024-02-12T04:59:42.091Z,5.80
2024-02-12T05:02:13.960Z,4.95
2024-02-12T05:04:46.682Z,3.78
2024-02-12T05:07:18.389Z,7.88
2024-02-12T05:09:51.026Z,7.85
2024-02-12T05:12:34.250Z,5.63
2024-02-12T05:15:13.722Z,3.65
2024-02-12T05:17:56.924Z,5.40
2024-02-12T05:20:40.732Z,7.60
2024-02-12T05:23:17.052Z,4.03
2024-02-12T05:25:53.562Z,7.07
2024-02-12T05:28:30.798Z,5.68
2024-02-12T05:31:05.281Z,7.72
2024-02-12T05:33:37.264Z,9.23
2024-02-12T05:36:15.703Z,7.07
2024-02-12T05:38:49.476Z,5.43
2024-02-12T05:41:22.843Z,4.15
2024-02-12T05:43:57.972Z,5.82
2024-02-12T05:46:34.680Z,5.38
2024-02-12T05:49:11.751Z,10.23
2024-02-12T05:51:44.930Z,6.13
2024-02-12T05:54:27.106Z,6.80
2024-02-12T05:56:59.226Z,5.88
2024-02-12T05:59:34.752Z,6.55
2024-02-12T06:02:14.175Z,8.85
2024-02-12T06:04:46.490Z,9.27
2024-02-12T06:07:18.527Z,9.68
2024-02-12T06:09:50.296Z,9.18
2024-02-12T06:12:24.502Z,8.00
2024-02-12T06:14:56.537Z,5.60
2024-02-12T06:17:32.759Z,7.72
2024-02-12T06:20:09.950Z,4.55
2024-02-12T06:22:45.449Z,6.95
2024-02-12T06:25:22.388Z,6.43
2024-02-12T06:30:36.397Z,4.43
2024-02-12T06:33:19.744Z,6.40
2024-02-12T06:35:58.557Z,5.47
2024-02-12T06:38:33.330Z,5.15
2024-02-12T06:41:09.466Z,12.07
2024-02-12T06:43:44.091Z,9.80
2024-02-12T06:46:15.563Z,6.15
2024-02-12T06:48:53.717Z,8.60
2024-02-12T06:51:25.716Z,4.20
2024-02-12T06:54:06.779Z,4.85
2024-02-12T06:56:43.590Z,6.38
2024-02-12T06:59:15.933Z,5.93
2024-02-12T07:01:50.537Z,8.43
2024-02-12T07:04:27.726Z,10.25
2024-02-12T07:07:01.392Z,5.10
2024-02-12T07:09:36.693Z,5.70
2024-02-12T07:12:11.892Z,3.38
2024-02-12T07:14:44.758Z,5.97
2024-02-12T07:17:20.419Z,6.75
2024-02-12T07:20:02.487Z,4.97
2024-02-12T07:22:36.460Z,7.07
2024-02-12T07:25:17.028Z,6.97
2024-02-12T07:27:56.202Z,20.65
2024-02-12T07:30:31.845Z,7.15
2024-02-12T07:33:05.842Z,8.35
2024-02-12T07:35:40.648Z,3.85
2024-02-12T07:38:12.658Z,12.80
2024-02-12T07:40:45.393Z,8.25
2024-02-12T07:43:16.924Z,6.15
2024-02-12T07:45:48.474Z,3.70
2024-02-12T07:48:21.660Z,6.32
2024-02-12T07:51:00.350Z,4.15
2024-02-12T07:53:32.384Z,9.90
2024-02-12T07:56:06.677Z,7.72
2024-02-12T07:58:40.762Z,9.88
2024-02-12T08:01:14.380Z,7.90
2024-02-12T08:03:46.581Z,9.43
2024-02-12T08:06:26.461Z,7.15
2024-02-12T08:08:58.255Z,4.05
2024-02-12T08:11:32.571Z,8.32
2024-02-12T08:14:13.652Z,5.28
2024-02-12T08:16:51.799Z,3.58
2024-02-12T08:19:41.151Z,6.55
2024-02-12T08:22:17.068Z,8.77
2024-02-12T08:24:55.668Z,4.40
2024-02-12T08:27:29.295Z,5.32
2024-02-12T08:30:08.716Z,10.13
2024-02-12T08:32:42.421Z,8.25
2024-02-12T08:38:02.513Z,6.53
2024-02-12T08:40:40.584Z,7.82
2024-02-12T08:43:12.223Z,7.97
2024-02-12T08:45:46.350Z,8.13
2024-02-12T08:48:23.402Z,6.88
2024-02-12T08:51:05.803Z,7.10
2024-02-12T08:53:45.786Z,7.38
2024-02-12T08:56:37.541Z,4.68
2024-02-12T08:59:12.457Z,6.97
2024-02-12T09:01:44.910Z,3.63
2024-02-12T09:04:21.508Z,6.50
2024-02-12T09:06:53.003Z,9.32
2024-02-12T09:09:27.965Z,10.93
2024-02-12T09:12:02.823Z,10.27
2024-02-12T09:14:36.883Z,5.07
2024-02-12T09:17:13.522Z,4.57
2024-02-12T09:19:46.407Z,8.20
2024-02-12T09:22:18.244Z,2.53
2024-02-12T09:24:58.718Z,4.70
2024-02-12T09:27:32.851Z,5.38
2024-02-12T09:30:08.353Z,7.28
2024-02-12T09:32:46.035Z,3.55
2024-02-12T09:35:20.716Z,4.97
2024-02-12T09:38:01.374Z,8.07
2024-02-12T09:40:47.673Z,6.43
2024-02-12T09:43:30.169Z,5.97
2024-02-12T09:46:09.087Z,6.07
2024-02-12T09:48:41.608Z,4.88
2024-02-12T09:51:15.691Z,7.38
2024-02-12T09:53:57.263Z,4.32
2024-02-12T09:56:33.295Z,7.22
2024-02-12T09:59:04.757Z,6.00
2024-02-12T10:01:38.313Z,5.75
2024-02-12T10:04:31.123Z,6.60
2024-02-12T10:07:23.605Z,5.97
2024-02-12T10:10:21.770Z,2.47
2024-02-12T10:13:16.576Z,2.50
2024-02-12T10:16:08.862Z,7.95
2024-02-12T10:19:02.454Z,7.03
2024-02-12T10:21:56.929Z,7.53
2024-02-12T10:24:50.398Z,6.32
2024-02-12T10:30:37.499Z,5.35
2024-02-12T10:33:30.549Z,3.75
2024-02-12T10:36:25.582Z,3.85
2024-02-12T10:39:26.134Z,4.00
2024-02-12T10:42:25.086Z,4.57
2024-02-12T10:45:20.939Z,5.32
2024-02-12T10:48:22.847Z,4.68
2024-02-12T10:51:15.443Z,4.15
2024-02-12T10:54:10.044Z,3.05
2024-02-12T10:56:45.695Z,1.65
2024-02-12T10:59:18.421Z,3.90
2024-02-12T11:01:57.803Z,5.45
2024-02-12T11:04:36.978Z,2.53
2024-02-12T11:07:13.050Z,2.17
2024-02-12T11:09:46.754Z,4.07
2024-02-12T11:12:47.085Z,7.03
2024-02-12T11:15:43.128Z,1.98
2024-02-12T11:21:18.382Z,3.35
2024-02-12T11:23:53.643Z,3.42
2024-02-12T11:26:27.232Z,5.47
2024-02-12T11:29:11.098Z,4.78
2024-02-12T11:31:49.258Z,0.95
2024-02-12T11:34:25.770Z,4.35
2024-02-12T11:37:08.578Z,3.10
2024-02-12T11:39:41.099Z,5.15
2024-02-12T11:42:25.272Z,4.82
2024-02-12T11:45:05.768Z,6.18
2024-02-12T11:47:45.462Z,2.88
2024-02-12T11:50:30.608Z,1.30
2024-02-12T11:54:01.613Z,4.70
2024-02-12T11:56:38.334Z,0.88
2024-02-12T11:59:12.072Z,5.85
2024-02-12T12:01:46.484Z,2.15
2024-02-12T12:04:18.134Z,4.60
2024-02-12T12:06:52.317Z,2.83
2024-02-12T12:09:26.793Z,5.88
2024-02-12T12:12:00.059Z,6.13
2024-02-12T12:14:41.109Z,4.32
2024-02-12T12:17:30.263Z,2.83
2024-02-12T12:20:17.748Z,5.28
2024-02-12T12:22:58.255Z,4.30
2024-02-12T12:25:38.137Z,4.97
2024-02-12T12:28:23.739Z,4.28
2024-02-12T12:30:58.400Z,7.60
2024-02-12T12:33:33.480Z,4.43
2024-02-12T12:36:13.591Z,6.97
2024-02-12T12:38:53.897Z,5.55
2024-02-12T12:41:30.977Z,3.83
2024-02-12T12:44:12.102Z,4.93
2024-02-12T12:46:44.201Z,4.72
2024-02-12T12:49:23.869Z,5.97
2024-02-12T12:51:59.304Z,4.47
2024-02-12T12:54:37.238Z,4.68
2024-02-12T12:57:14.867Z,6.03
2024-02-12T12:59:51.755Z,5.07
2024-02-12T13:02:28.068Z,8.13
2024-02-12T13:05:07.268Z,2.95
2024-02-12T13:08:17.478Z,4.95
2024-02-12T13:10:53.651Z,6.18
2024-02-12T13:13:37.188Z,5.97
2024-02-12T13:16:14.835Z,2.88
2024-02-12T13:18:49.452Z,4.45
2024-02-12T13:21:40.253Z,7.40
2024-02-12T13:24:17.503Z,4.05
2024-02-12T13:26:52.748Z,7.03
2024-02-12T13:29:28.550Z,1.70
2024-02-12T13:32:08.459Z,2.20
2024-02-12T13:34:40.602Z,5.70
2024-02-12T13:37:14.105Z,2.58
2024-02-12T13:39:48.354Z,4.38
2024-02-12T13:42:27.289Z,9.07
2024-02-12T13:45:04.663Z,4.22
2024-02-12T13:47:46.572Z,5.55
2024-02-12T13:50:18.703Z,4.03
2024-02-12T13:52:50.524Z,3.97
2024-02-12T13:55:22.908Z,1.95
2024-02-12T13:57:54.921Z,6.13
2024-02-12T14:00:47.513Z,5.65
2024-02-12T14:03:21.229Z,5.50
2024-02-12T14:05:56.625Z,8.85
2024-02-12T14:08:31.564Z,5.18
2024-02-12T14:11:03.248Z,13.57
2024-02-12T14:13:34.975Z,3.50
2024-02-12T14:16:11.299Z,2.85
2024-02-12T14:18:44.264Z,10.77
2024-02-12T14:21:17.368Z,2.60
2024-02-12T14:23:49.536Z,4.82
2024-02-12T14:26:23.210Z,6.32
2024-02-12T14:28:55.698Z,3.97
2024-02-12T14:31:34.354Z,6.57
2024-02-12T14:34:27.594Z,3.25
2024-02-12T14:36:59.563Z,6.75
2024-02-12T14:39:30.993Z,5.00
2024-02-12T14:42:02.303Z,6.45
2024-02-12T14:44:36.485Z,3.92
2024-02-12T14:47:12.260Z,4.88
2024-02-12T14:49:46.329Z,6.53
2024-02-12T14:52:20.750Z,2.35
2024-02-12T14:54:52.620Z,10.43
2024-02-12T14:57:24.229Z,3.80
2024-02-12T14:59:58.100Z,5.35
2024-02-12T15:02:32.518Z,5.03
2024-02-12T15:05:07.791Z,5.13
2024-02-12T15:07:39.599Z,9.63
2024-02-12T15:10:12.834Z,7.57
2024-02-12T15:12:48.415Z,8.02
2024-02-12T15:15:21.024Z,11.50
2024-02-12T15:17:56.961Z,12.38
2024-02-12T15:20:37.459Z,14.25
2024-02-12T15:25:45.591Z,11.02
2024-02-12T15:28:18.492Z,6.03
2024-02-12T15:30:53.650Z,11.88
2024-02-12T15:33:49.202Z,8.68
2024-02-12T15:36:21.752Z,4.82
2024-02-12T15:38:53.617Z,8.55
2024-02-12T15:41:28.862Z,5.28
2024-02-12T15:44:38.361Z,9.43
2024-02-12T15:47:15.979Z,8.73
2024-02-12T15:49:51.321Z,7.82
2024-02-12T15:52:24.732Z,6.97
2024-02-12T15:54:57.998Z,7.32
2024-02-12T15:57:46.515Z,5.13
2024-02-12T16:00:24.693Z,6.07
2024-02-12T16:03:03.659Z,8.55
2024-02-12T16:06:07.485Z,11.20
2024-02-12T16:08:53.906Z,7.88
2024-02-12T16:11:28.758Z,13.90
2024-02-12T16:14:04.954Z,18.63
2024-02-12T16:16:37.052Z,10.75
2024-02-12T16:19:17.948Z,10.10
2024-02-12T16:21:49.384Z,9.68
2024-02-12T16:24:23.569Z,11.52
2024-02-12T16:26:55.042Z,9.90
2024-02-12T16:29:27.826Z,6.43
2024-02-12T16:31:59.235Z,6.65
2024-02-12T16:34:32.341Z,5.32
2024-02-12T16:37:05.699Z,7.88
2024-02-12T16:39:42.236Z,5.47
2024-02-12T16:42:14.577Z,3.08
2024-02-12T16:44:46.170Z,3.80
2024-02-12T16:47:19.117Z,3.83
2024-02-12T16:49:52.309Z,4.22
2024-02-12T16:52:23.902Z,6.05
2024-02-12T16:54:57.837Z,7.97
2024-02-12T16:57:53.278Z,9.45
2024-02-12T17:00:29.753Z,10.60
2024-02-12T17:03:12.068Z,7.63
2024-02-12T17:05:44.534Z,8.57
2024-02-12T17:08:19.183Z,9.15
2024-02-12T17:10:53.329Z,7.00
2024-02-12T17:13:31.488Z,4.60
2024-02-12T17:16:03.833Z,3.22
2024-02-12T17:18:36.045Z,7.82
2024-02-12T17:21:07.590Z,4.03
2024-02-12T17:23:39.499Z,4.45
2024-02-12T17:26:14.832Z,7.65
2024-02-12T17:28:46.886Z,13.48
2024-02-12T17:31:19.628Z,8.13
2024-02-12T17:33:57.531Z,12.18
2024-02-12T17:36:32.177Z,10.15
2024-02-12T17:39:03.814Z,11.35
2024-02-12T17:41:38.184Z,6.85
2024-02-12T17:44:15.221Z,7.93
2024-02-12T17:46:52.152Z,12.10
2024-02-12T17:49:23.830Z,15.60
2024-02-12T17:51:55.756Z,12.60
2024-02-12T17:54:29.456Z,12.65
2024-02-12T17:57:05.295Z,9.68
2024-02-12T17:59:40.507Z,10.60
2024-02-12T18:02:16.278Z,20.65
2024-02-12T18:04:47.953Z,9.07
2024-02-12T18:07:19.536Z,11.32
2024-02-12T18:09:52.621Z,17.23
2024-02-12T18:12:28.725Z,17.00
2024-02-12T18:15:01.719Z,20.98
2024-02-12T18:17:37.278Z,22.52
2024-02-12T18:20:10.134Z,9.75
2024-02-12T18:22:41.846Z,8.07
2024-02-12T18:25:16.310Z,4.65
2024-02-12T18:27:57.602Z,12.48
2024-02-12T18:33:03.937Z,24.88
2024-02-12T18:35:38.272Z,15.93
2024-02-12T18:38:13.355Z,12.10
2024-02-12T18:40:45.403Z,6.40
2024-02-12T18:43:19.925Z,12.50
2024-02-12T18:45:53.416Z,9.40
2024-02-12T18:48:26.349Z,8.77
2024-02-12T18:50:57.964Z,8.18
2024-02-12T18:53:29.398Z,6.63
2024-02-12T18:56:01.407Z,6.57
2024-02-12T18:58:36.773Z,4.93
2024-02-12T19:01:12.612Z,5.93
2024-02-12T19:03:47.788Z,8.05
2024-02-12T19:06:19.839Z,8.80
2024-02-12T19:08:54.429Z,7.63
2024-02-12T19:11:26.620Z,3.38
2024-02-12T19:14:06.628Z,4.55
2024-02-12T19:16:39.219Z,16.75
2024-02-12T19:19:11.592Z,7.50
2024-02-12T19:21:46.147Z,7.53
2024-02-12T19:24:23.753Z,4.65
2024-02-12T19:26:57.655Z,9.45
2024-02-12T19:29:31.581Z,7.70
2024-02-12T19:32:05.007Z,9.05
2024-02-12T19:34:37.909Z,10.98
2024-02-12T19:37:12.012Z,5.13
2024-02-12T19:39:50.556Z,8.43
2024-02-12T19:42:24.253Z,7.85
2024-02-12T19:44:58.320Z,6.40
2024-02-12T19:47:32.981Z,7.32
2024-02-12T19:50:04.662Z,4.68
2024-02-12T19:52:36.180Z,6.88
2024-02-12T19:55:09.517Z,10.02
2024-02-12T19:57:42.696Z,6.07
2024-02-12T20:00:18.920Z,5.18
2024-02-12T20:02:52.940Z,2.83
2024-02-12T20:05:24.748Z,6.22
2024-02-12T20:07:57.118Z,8.82
2024-02-12T20:10:28.821Z,6.10
2024-02-12T20:13:00.498Z,4.43
2024-02-12T20:15:35.410Z,7.53
2024-02-12T20:18:08.043Z,5.22
2024-02-12T20:20:42.090Z,4.95
2024-02-12T20:23:15.577Z,4.80
2024-02-12T20:25:48.224Z,8.77
2024-02-12T20:28:42.084Z,5.93
2024-02-12T20:31:19.308Z,4.35
2024-02-12T20:33:53.874Z,8.40
2024-02-12T20:36:27.699Z,14.52
2024-02-12T20:41:32.150Z,11.02
2024-02-12T20:44:03.674Z,9.77
2024-02-12T20:46:37.678Z,4.28
2024-02-12T20:51:40.173Z,5.72
2024-02-12T20:54:11.452Z,4.22
2024-02-12T20:56:43.794Z,4.90
2024-02-12T20:59:15.009Z,5.60
2024-02-12T21:01:49.060Z,7.43
2024-02-12T21:04:20.578Z,18.23
2024-02-12T21:06:51.936Z,9.07
2024-02-12T21:09:23.115Z,41.40
2024-02-12T21:11:54.595Z,20.35
2024-02-12T21:14:26.343Z,21.80
2024-02-12T21:17:05.911Z,30.40
2024-02-12T21:19:37.115Z,35.53
2024-02-12T21:22:12.595Z,41.47
2024-02-12T21:24:46.309Z,18.77
2024-02-12T21:27:17.713Z,30.30
2024-02-12T21:29:52.672Z,22.45
2024-02-12T21:32:30.660Z,15.43
2024-02-12T21:35:03.415Z,28.88
2024-02-12T21:37:35.851Z,13.32
2024-02-12T21:40:09.842Z,13.18
2024-02-12T21:45:13.107Z,9.90
2024-02-12T21:47:48.930Z,7.95
2024-02-12T21:50:23.934Z,8.50
2024-02-12T21:53:02.977Z,4.70
2024-02-12T21:55:34.416Z,12.75
2024-02-12T21:58:12.627Z,8.90
2024-02-12T22:00:45.869Z,11.23
2024-02-12T22:03:21.240Z,11.07
2024-02-12T22:05:57.618Z,12.13
2024-02-12T22:08:29.457Z,12.43
2024-02-12T22:11:01.787Z,9.10
2024-02-12T22:13:33.505Z,11.25
2024-02-12T22:16:07.362Z,11.07
2024-02-12T22:18:41.951Z,11.43
2024-02-12T22:21:13.673Z,15.77
2024-02-12T22:23:46.101Z,10.98
2024-02-12T22:26:17.905Z,9.20
2024-02-12T22:28:50.664Z,8.25
2024-02-12T22:31:25.933Z,9.73
2024-02-12T22:34:05.104Z,15.40
2024-02-12T22:36:37.173Z,15.05
2024-02-12T22:39:09.831Z,9.63
2024-02-12T22:41:44.740Z,11.15
2024-02-12T22:44:16.834Z,13.18
2024-02-12T22:46:48.577Z,9.35
2024-02-12T22:49:23.139Z,16.60
2024-02-12T22:51:56.473Z,15.23
2024-02-12T22:54:28.031Z,18.98
2024-02-12T22:56:59.786Z,16.05
2024-02-12T22:59:32.564Z,7.72
2024-02-12T23:02:05.607Z,12.73
2024-02-12T23:04:41.704Z,11.23
2024-02-12T23:07:14.046Z,13.48
2024-02-12T23:09:48.077Z,12.25
2024-02-12T23:14:51.231Z,6.82
2024-02-12T23:17:25.960Z,17.10
2024-02-12T23:20:01.428Z,10.60
2024-02-12T23:22:33.224Z,3.45
2024-02-12T23:25:04.666Z,6.47
2024-02-12T23:27:37.104Z,6.80
2024-02-12T23:30:10.340Z,9.13
2024-02-12T23:32:45.654Z,12.43
2024-02-12T23:35:20.046Z,8.75
2024-02-12T23:37:52.475Z,5.53
2024-02-12T23:40:24.121Z,10.23
2024-02-12T23:42:55.316Z,7.38
2024-02-12T23:45:27.994Z,6.22
2024-02-12T23:48:20.602Z,3.75
2024-02-12T23:50:54.888Z,5.18
2024-02-12T23:53:28.041Z,7.35
2024-02-12T23:55:59.685Z,10.95
2024-02-12T23:58:35.917Z,14.35
